createdAt,value
2019-01-27T00:00:27.324Z,7.62
2019-01-27T00:02:38.233Z,7.63
2019-01-27T00:03:20.258Z,7.6
2019-01-27T00:04:01.115Z,7.55
2019-01-27T00:04:41.884Z,7.54
2019-01-27T00:05:23.654Z,7.55
2019-01-27T00:06:04.134Z,7.47
2019-01-27T00:06:44.829Z,7.57
2019-01-27T00:07:25.213Z,7.58
2019-01-27T00:08:05.889Z,7.5
2019-01-27T00:08:46.215Z,7.55
2019-01-27T00:09:26.778Z,7.45
2019-01-27T00:10:07.195Z,7.57
2019-01-27T00:10:47.745Z,7.55
2019-01-27T00:11:28.144Z,7.55
2019-01-27T00:12:08.470Z,7.5
2019-01-27T00:12:49.668Z,7.55
2019-01-27T00:13:30.391Z,7.57
2019-01-27T00:14:10.841Z,7.57
2019-01-27T00:14:51.188Z,7.52
2019-01-27T00:15:32.390Z,7.48
2019-01-27T00:16:12.640Z,7.55
2019-01-27T00:16:53.981Z,7.47
2019-01-27T00:17:34.425Z,7.55
2019-01-27T00:18:15.107Z,7.5
2019-01-27T00:18:56.362Z,7.57
2019-01-27T00:19:36.881Z,7.52
2019-01-27T00:20:17.341Z,7.6
2019-01-27T00:20:58.781Z,7.51
2019-01-27T00:21:39.180Z,7.54
2019-01-27T00:22:21.225Z,7.57
2019-01-27T00:23:01.682Z,7.47
2019-01-27T00:23:42.181Z,7.42
2019-01-27T00:24:22.770Z,7.54
2019-01-27T00:25:03.355Z,7.47
2019-01-27T00:25:43.845Z,7.55
2019-01-27T00:26:24.640Z,7.44
2019-01-27T00:27:05.129Z,7.57
2019-01-27T00:27:45.712Z,7.51
2019-01-27T00:28:28.243Z,7.57
2019-01-27T00:29:10.927Z,7.55
2019-01-27T00:29:54.038Z,7.57
2019-01-27T00:30:37.373Z,7.58
2019-01-27T00:31:18.538Z,7.57
2019-01-27T00:32:00.995Z,7.57
2019-01-27T00:33:43.086Z,7.57
2019-01-27T00:34:36.403Z,7.51
2019-01-27T00:35:28.888Z,7.54
2019-01-27T00:36:21.548Z,7.48
2019-01-27T00:37:13.608Z,7.58
2019-01-27T00:38:07.747Z,7.48
2019-01-27T00:39:00.381Z,7.45
2019-01-27T00:39:52.670Z,7.5
2019-01-27T00:40:45.591Z,7.62
2019-01-27T00:41:39.785Z,7.57
2019-01-27T00:42:34.020Z,7.57
2019-01-27T00:43:27.934Z,7.58
2019-01-27T00:44:20.363Z,7.67
2019-01-27T00:45:12.703Z,7.66
2019-01-27T00:46:05.250Z,7.62
2019-01-27T00:46:59.443Z,7.6
2019-01-27T00:47:51.314Z,7.58
2019-01-27T00:48:43.727Z,7.66
2019-01-27T00:50:45.138Z,7.69
2019-01-27T00:51:37.491Z,7.67
2019-01-27T00:52:29.824Z,7.66
2019-01-27T00:53:22.478Z,7.67
2019-01-27T00:54:16.365Z,7.66
2019-01-27T00:55:09.917Z,7.66
2019-01-27T00:56:02.228Z,7.71
2019-01-27T00:56:54.994Z,7.73
2019-01-27T00:57:48.148Z,7.77
2019-01-27T00:58:41.384Z,7.81
2019-01-27T00:59:33.908Z,7.76
2019-01-27T01:00:26.995Z,7.73
2019-01-27T01:01:19.391Z,7.77
2019-01-27T01:02:12.971Z,7.81
2019-01-27T01:03:05.513Z,7.82
2019-01-27T01:03:59.183Z,7.84
2019-01-27T01:04:51.134Z,7.81
2019-01-27T01:05:45.520Z,7.85
2019-01-27T01:06:37.790Z,7.82
2019-01-27T01:07:30.286Z,7.91
2019-01-27T01:08:28.134Z,7.95
2019-01-27T01:09:19.629Z,7.96
2019-01-27T01:10:11.785Z,7.96
2019-01-27T01:11:04.103Z,7.95
2019-01-27T01:11:56.476Z,7.95
2019-01-27T01:12:49.924Z,7.94
2019-01-27T01:13:43.093Z,7.94
2019-01-27T01:14:36.302Z,7.96
2019-01-27T01:15:28.770Z,8.09
2019-01-27T01:16:21.741Z,8.18
2019-01-27T01:17:14.681Z,8.21
2019-01-27T01:18:08.997Z,8.21
2019-01-27T01:19:01.048Z,8.25
2019-01-27T01:19:57.421Z,8.21
2019-01-27T01:20:51.325Z,8.31
2019-01-27T01:21:54.757Z,8.36
2019-01-27T01:22:59.487Z,8.45
2019-01-27T01:23:52.972Z,8.54
2019-01-27T01:24:52.289Z,8.47
2019-01-27T01:25:48.316Z,8.55
2019-01-27T01:26:41.679Z,8.6
2019-01-27T01:27:34.748Z,8.68
2019-01-27T01:28:42.140Z,8.68
2019-01-27T01:29:37.861Z,8.63
2019-01-27T01:30:30.206Z,8.78
2019-01-27T01:31:22.393Z,8.7
2019-01-27T01:32:15.807Z,8.78
2019-01-27T01:33:25.112Z,8.68
2019-01-27T01:34:19.707Z,8.78
2019-01-27T01:35:13.974Z,8.79
2019-01-27T01:36:13.191Z,8.78
2019-01-27T01:37:06.000Z,8.86
2019-01-27T01:39:35.759Z,8.96
2019-01-27T01:41:46.915Z,9.06
2019-01-27T01:43:52.350Z,9.31
2019-01-27T01:44:45.468Z,9.23
2019-01-27T01:45:37.907Z,9.03
2019-01-27T01:46:32.003Z,9.12
2019-01-27T01:47:25.043Z,9.13
2019-01-27T01:48:36.286Z,9.01
2019-01-27T01:51:04.187Z,8.97
2019-01-27T01:51:46.906Z,8.93
2019-01-27T01:52:27.345Z,8.93
2019-01-27T01:53:07.695Z,8.93
2019-01-27T01:53:48.140Z,8.8
2019-01-27T01:54:29.477Z,8.82
2019-01-27T01:55:09.934Z,8.73
2019-01-27T01:55:50.283Z,8.85
2019-01-27T01:56:30.754Z,8.91
2019-01-27T01:57:11.143Z,8.91
2019-01-27T01:57:51.773Z,8.94
2019-01-27T02:01:26.819Z,8.65
2019-01-27T02:02:21.193Z,8.65
2019-01-27T02:03:13.449Z,8.63
2019-01-27T02:04:05.892Z,8.58
2019-01-27T02:04:58.472Z,8.45
2019-01-27T02:05:51.418Z,8.57
2019-01-27T02:06:44.348Z,8.39
2019-01-27T02:07:38.446Z,8.32
2019-01-27T02:08:36.981Z,8.31
2019-01-27T02:09:30.833Z,8.21
2019-01-27T02:10:26.759Z,8.22
2019-01-27T02:11:22.326Z,8.14
2019-01-27T02:12:17.045Z,8.13
2019-01-27T02:13:09.778Z,8.18
2019-01-27T02:14:03.361Z,8.18
2019-01-27T02:14:58.578Z,8.1
2019-01-27T02:15:51.047Z,8.09
2019-01-27T02:18:00.981Z,8.02
2019-01-27T02:18:53.265Z,8
2019-01-27T02:19:47.150Z,7.89
2019-01-27T02:20:40.651Z,7.94
2019-01-27T02:21:33.117Z,7.91
2019-01-27T02:22:26.327Z,7.84
2019-01-27T02:23:19.273Z,7.94
2019-01-27T02:24:12.899Z,7.82
2019-01-27T02:25:05.366Z,7.86
2019-01-27T02:25:59.545Z,7.86
2019-01-27T02:26:53.770Z,7.85
2019-01-27T02:27:45.949Z,7.89
2019-01-27T02:28:38.486Z,7.84
2019-01-27T02:29:30.778Z,7.85
2019-01-27T02:30:22.950Z,7.95
2019-01-27T02:31:15.552Z,7.95
2019-01-27T02:32:11.603Z,7.94
2019-01-27T02:33:04.157Z,8
2019-01-27T02:33:57.267Z,8.02
2019-01-27T02:34:50.692Z,8
2019-01-27T02:35:44.679Z,7.89
2019-01-27T02:36:37.050Z,7.92
2019-01-27T02:37:33.486Z,8.09
2019-01-27T02:38:24.668Z,8.17
2019-01-27T02:39:18.170Z,8.17
2019-01-27T02:40:14.762Z,8.22
2019-01-27T02:41:05.837Z,8.13
2019-01-27T02:41:58.770Z,8.2
2019-01-27T02:42:51.253Z,8.1
2019-01-27T02:43:44.713Z,8.12
2019-01-27T02:44:38.551Z,8.04
2019-01-27T02:45:30.890Z,8.03
2019-01-27T02:46:23.801Z,7.95
2019-01-27T02:47:17.112Z,7.96
2019-01-27T02:48:14.071Z,8.02
2019-01-27T02:49:06.374Z,7.92
2019-01-27T02:49:58.689Z,8
2019-01-27T02:50:51.667Z,7.95
2019-01-27T02:51:44.192Z,7.92
2019-01-27T02:52:37.712Z,7.88
2019-01-27T02:53:30.462Z,7.95
2019-01-27T02:54:23.756Z,8
2019-01-27T02:55:21.482Z,7.91
2019-01-27T02:56:14.120Z,8.03
2019-01-27T02:57:05.197Z,7.99
2019-01-27T02:57:55.848Z,8.02
2019-01-27T02:58:39.333Z,7.94
2019-01-27T02:59:20.827Z,7.88
2019-01-27T03:00:01.784Z,7.94
2019-01-27T03:00:42.201Z,7.94
2019-01-27T03:01:23.735Z,7.91
2019-01-27T03:02:03.895Z,8
2019-01-27T03:02:44.637Z,8.02
2019-01-27T03:03:26.409Z,7.95
2019-01-27T03:04:07.284Z,7.96
2019-01-27T03:04:47.949Z,7.91
2019-01-27T03:05:28.934Z,7.89
2019-01-27T03:06:10.309Z,7.96
2019-01-27T03:06:53.275Z,7.91
2019-01-27T03:07:35.935Z,8.02
2019-01-27T03:08:17.473Z,7.95
2019-01-27T03:09:01.025Z,7.95
2019-01-27T03:09:41.653Z,7.99
2019-01-27T03:10:22.492Z,8.04
2019-01-27T03:11:04.540Z,8
2019-01-27T03:11:46.865Z,8.06
2019-01-27T03:12:27.222Z,8.06
2019-01-27T03:13:08.388Z,8.09
2019-01-27T03:13:51.477Z,8.09
2019-01-27T03:14:31.998Z,8.04
2019-01-27T03:15:14.489Z,8.04
2019-01-27T03:15:56.085Z,8.02
2019-01-27T03:16:38.454Z,8.03
2019-01-27T03:17:20.029Z,7.95
2019-01-27T03:18:01.173Z,7.95
2019-01-27T03:18:42.736Z,7.95
2019-01-27T03:19:24.502Z,7.91
2019-01-27T03:20:06.941Z,7.94
2019-01-27T03:20:49.730Z,7.94
2019-01-27T03:21:30.240Z,7.95
2019-01-27T03:22:11.683Z,7.92
2019-01-27T03:22:51.964Z,7.92
2019-01-27T03:23:34.011Z,7.91
2019-01-27T03:24:16.001Z,7.94
2019-01-27T03:24:58.135Z,7.92
2019-01-27T03:25:39.739Z,8.02
2019-01-27T03:26:20.503Z,7.85
2019-01-27T03:27:01.282Z,8
2019-01-27T03:27:43.065Z,7.91
2019-01-27T03:28:24.329Z,7.95
2019-01-27T03:29:04.790Z,7.99
2019-01-27T03:29:46.077Z,8.09
2019-01-27T03:30:30.359Z,7.94
2019-01-27T03:31:11.038Z,7.95
2019-01-27T03:31:51.569Z,7.92
2019-01-27T03:32:34.149Z,7.86
2019-01-27T03:33:15.113Z,7.77
2019-01-27T03:33:57.475Z,7.84
2019-01-27T03:34:39.600Z,7.82
2019-01-27T03:35:20.466Z,7.81
2019-01-27T03:36:03.254Z,7.84
2019-01-27T03:36:43.883Z,7.82
2019-01-27T03:37:24.617Z,7.79
2019-01-27T03:38:05.201Z,7.77
2019-01-27T03:38:46.863Z,7.96
2019-01-27T03:39:28.291Z,7.92
2019-01-27T03:40:10.041Z,7.91
2019-01-27T03:40:53.197Z,7.95
2019-01-27T03:41:34.265Z,7.85
2019-01-27T03:42:16.454Z,7.85
2019-01-27T03:42:56.784Z,7.85
2019-01-27T03:43:37.764Z,7.84
2019-01-27T03:44:18.322Z,7.92
2019-01-27T03:44:59.544Z,7.94
2019-01-27T03:45:40.619Z,7.89
2019-01-27T03:46:22.024Z,7.82
2019-01-27T03:47:03.428Z,7.79
2019-01-27T03:47:43.930Z,7.79
2019-01-27T03:48:24.831Z,7.71
2019-01-27T03:49:05.295Z,7.73
2019-01-27T03:49:47.091Z,7.69
2019-01-27T03:50:29.133Z,7.71
2019-01-27T03:51:10.330Z,7.63
2019-01-27T03:51:51.726Z,7.62
2019-01-27T03:52:33.734Z,7.63
2019-01-27T03:53:13.972Z,7.6
2019-01-27T03:53:55.842Z,7.6
2019-01-27T03:54:37.433Z,7.58
2019-01-27T03:55:18.736Z,7.52
2019-01-27T03:55:59.383Z,7.6
2019-01-27T03:56:40.058Z,7.63
2019-01-27T03:57:20.911Z,7.57
2019-01-27T03:58:01.385Z,7.6
2019-01-27T03:58:42.032Z,7.66
2019-01-27T03:59:22.706Z,7.66
2019-01-27T04:00:03.417Z,7.71
2019-01-27T04:00:45.582Z,7.62
2019-01-27T04:01:27.115Z,7.62
2019-01-27T04:02:07.825Z,7.63
2019-01-27T04:02:49.244Z,7.58
2019-01-27T04:03:30.526Z,7.6
2019-01-27T04:04:11.060Z,7.63
2019-01-27T04:04:52.189Z,7.6
2019-01-27T04:05:33.180Z,7.62
2019-01-27T04:06:13.448Z,7.63
2019-01-27T04:06:54.336Z,7.58
2019-01-27T04:07:36.712Z,7.62
2019-01-27T04:08:17.087Z,7.6
2019-01-27T04:08:57.944Z,7.57
2019-01-27T04:09:38.585Z,7.62
2019-01-27T04:10:19.449Z,7.6
2019-01-27T04:11:01.087Z,7.62
2019-01-27T04:11:43.652Z,7.55
2019-01-27T04:12:24.619Z,7.57
2019-01-27T04:13:05.846Z,7.57
2019-01-27T04:13:46.303Z,7.57
2019-01-27T04:14:28.293Z,7.57
2019-01-27T04:15:09.982Z,7.6
2019-01-27T04:15:51.401Z,7.54
2019-01-27T04:16:32.290Z,7.55
2019-01-27T04:17:14.257Z,7.63
2019-01-27T04:17:54.748Z,7.63
2019-01-27T04:18:36.386Z,7.67
2019-01-27T04:19:17.596Z,7.66
2019-01-27T04:20:00.262Z,7.67
2019-01-27T04:20:40.526Z,7.6
2019-01-27T04:21:22.915Z,7.62
2019-01-27T04:22:03.820Z,7.57
2019-01-27T04:22:45.210Z,7.62
2019-01-27T04:24:27.230Z,7.63
2019-01-27T04:25:15.977Z,7.58
2019-01-27T04:25:58.876Z,7.62
2019-01-27T04:26:39.207Z,7.62
2019-01-27T04:27:20.956Z,7.57
2019-01-27T05:08:33.451Z,6.87
2019-01-27T05:12:18.683Z,6.89
2019-01-27T05:13:15.122Z,6.86
2019-01-27T05:15:28.867Z,6.9
2019-01-27T05:17:19.949Z,6.9
2019-01-27T05:18:09.207Z,6.9
2019-01-27T05:19:01.506Z,6.99
2019-01-27T05:19:52.449Z,7
2019-01-27T05:21:58.301Z,7.14
2019-01-27T05:22:50.593Z,7.09
2019-01-27T05:25:15.673Z,7.16
2019-01-27T05:26:08.321Z,7.19
2019-01-27T05:27:01.805Z,7.27
2019-01-27T05:27:54.061Z,7.29
2019-01-27T05:28:46.196Z,7.36
2019-01-27T05:29:38.605Z,7.33
2019-01-27T05:30:31.292Z,7.34
2019-01-27T05:31:24.817Z,7.44
2019-01-27T05:32:16.984Z,7.33
2019-01-27T05:33:11.804Z,7.48
2019-01-27T05:34:05.334Z,7.52
2019-01-27T05:34:57.875Z,7.51
2019-01-27T05:35:50.912Z,7.45
2019-01-27T05:36:43.325Z,7.48
2019-01-27T05:37:35.797Z,7.45
2019-01-27T05:38:28.475Z,7.45
2019-01-27T05:39:20.876Z,7.52
2019-01-27T05:40:13.092Z,7.54
2019-01-27T05:41:06.148Z,7.51
2019-01-27T05:41:58.417Z,7.58
2019-01-27T05:42:50.712Z,7.5
2019-01-27T05:43:43.423Z,7.54
2019-01-27T05:44:35.853Z,7.58
2019-01-27T05:45:28.336Z,7.54
2019-01-27T05:46:20.636Z,7.44
2019-01-27T05:47:12.915Z,7.48
2019-01-27T05:48:07.262Z,7.42
2019-01-27T05:48:59.291Z,7.37
2019-01-27T05:49:51.430Z,7.33
2019-01-27T05:50:47.457Z,7.41
2019-01-27T05:51:40.277Z,7.36
2019-01-27T05:52:33.257Z,7.37
2019-01-27T05:53:25.657Z,7.48
2019-01-27T05:54:20.173Z,7.45
2019-01-27T05:55:10.248Z,7.54
2019-01-27T05:56:02.924Z,7.42
2019-01-27T05:56:56.550Z,7.51
2019-01-27T05:57:47.561Z,7.5
2019-01-27T05:58:41.464Z,7.51
2019-01-27T05:59:34.239Z,7.58
2019-01-27T06:00:27.871Z,7.48
2019-01-27T06:01:20.494Z,7.5
2019-01-27T06:02:13.351Z,7.55
2019-01-27T06:03:06.671Z,7.67
2019-01-27T06:03:58.789Z,7.63
2019-01-27T06:04:51.527Z,7.6
2019-01-27T06:05:43.768Z,7.74
2019-01-27T06:06:36.310Z,7.66
2019-01-27T06:07:29.118Z,7.71
2019-01-27T06:08:21.118Z,7.77
2019-01-27T06:09:13.932Z,7.74
2019-01-27T06:10:06.312Z,7.81
2019-01-27T06:10:59.117Z,7.81
2019-01-27T06:11:51.223Z,7.84
2019-01-27T06:12:43.855Z,7.81
2019-01-27T06:13:36.372Z,7.81
2019-01-27T06:14:28.900Z,7.81
2019-01-27T06:15:21.331Z,7.73
2019-01-27T06:16:13.794Z,7.77
2019-01-27T06:17:06.003Z,7.7
2019-01-27T06:17:59.490Z,7.79
2019-01-27T06:18:52.837Z,7.73
2019-01-27T06:19:44.964Z,7.69
2019-01-27T06:20:37.542Z,7.74
2019-01-27T06:21:29.718Z,7.76
2019-01-27T06:22:22.023Z,7.74
2019-01-27T06:23:14.297Z,7.77
2019-01-27T06:24:05.147Z,7.74
2019-01-27T06:24:47.195Z,7.76
2019-01-27T06:25:27.778Z,7.76
2019-01-27T06:26:08.241Z,7.81
2019-01-27T06:26:50.936Z,7.77
2019-01-27T06:27:31.801Z,7.79
2019-01-27T06:28:13.079Z,7.77
2019-01-27T06:28:53.606Z,7.81
2019-01-27T06:29:35.666Z,7.79
2019-01-27T06:30:16.915Z,7.76
2019-01-27T06:30:58.250Z,7.73
2019-01-27T06:31:38.943Z,7.81
2019-01-27T06:32:21.070Z,7.79
2019-01-27T06:33:01.756Z,7.76
2019-01-27T06:33:42.295Z,7.77
2019-01-27T06:34:22.915Z,7.81
2019-01-27T06:35:03.773Z,7.73
2019-01-27T06:35:45.846Z,7.74
2019-01-27T06:36:27.331Z,7.77
2019-01-27T06:37:08.584Z,7.76
2019-01-27T06:37:49.179Z,7.73
2019-01-27T06:38:30.378Z,7.81
2019-01-27T06:39:10.818Z,7.76
2019-01-27T06:39:51.534Z,7.77
2019-01-27T06:40:32.372Z,7.76
2019-01-27T06:41:13.069Z,7.82
2019-01-27T06:41:53.987Z,7.81
2019-01-27T06:42:40.190Z,7.71
2019-01-27T06:43:20.442Z,7.84
2019-01-27T06:44:01.136Z,7.82
2019-01-27T06:44:41.644Z,7.81
2019-01-27T06:45:21.897Z,7.92
2019-01-27T06:46:02.493Z,7.94
2019-01-27T06:46:53.844Z,7.96
2019-01-27T06:47:34.452Z,8.13
2019-01-27T06:48:14.644Z,8.25
2019-01-27T06:48:55.083Z,8.28
2019-01-27T06:49:35.967Z,8.34
2019-01-27T06:50:16.688Z,8.52
2019-01-27T06:50:58.390Z,8.5
2019-01-27T06:51:39.584Z,8.55
2019-01-27T06:52:22.621Z,8.7
2019-01-27T06:53:03.724Z,8.65
2019-01-27T06:53:45.077Z,8.76
2019-01-27T06:55:27.054Z,8.73
2019-01-27T06:56:20.356Z,8.91
2019-01-27T06:57:12.698Z,8.93
2019-01-27T06:58:05.825Z,9.1
2019-01-27T06:58:58.001Z,9.08
2019-01-27T06:59:51.603Z,9.1
2019-01-27T07:00:44.721Z,9.12
2019-01-27T07:01:38.746Z,9.06
2019-01-27T07:02:31.463Z,9.16
2019-01-27T07:03:24.709Z,9.08
2019-01-27T07:04:20.603Z,9.08
2019-01-27T07:05:16.043Z,9.16
2019-01-27T07:06:09.709Z,9.13
2019-01-27T07:07:03.054Z,9.1
2019-01-27T07:08:03.193Z,9.04
2019-01-27T07:08:56.243Z,8.94
2019-01-27T07:09:51.576Z,8.96
2019-01-27T07:10:47.676Z,8.96
2019-01-27T07:11:46.366Z,8.88
2019-01-27T07:12:39.052Z,8.86
2019-01-27T07:13:33.635Z,8.76
2019-01-27T07:14:27.728Z,8.76
2019-01-27T07:15:21.374Z,8.75
2019-01-27T07:16:14.707Z,8.73
2019-01-27T07:17:07.780Z,8.73
2019-01-27T07:18:00.770Z,8.7
2019-01-27T07:18:54.803Z,8.79
2019-01-27T07:19:48.135Z,8.65
2019-01-27T07:20:43.565Z,8.61
2019-01-27T07:21:39.678Z,8.65
2019-01-27T07:22:33.702Z,8.57
2019-01-27T07:23:29.554Z,8.57
2019-01-27T07:24:23.421Z,8.5
2019-01-27T07:25:16.500Z,8.57
2019-01-27T07:26:11.682Z,8.5
2019-01-27T07:27:06.984Z,8.55
2019-01-27T07:27:59.881Z,8.49
2019-01-27T07:28:55.612Z,8.54
2019-01-27T07:29:50.401Z,8.55
2019-01-27T07:30:43.241Z,8.63
2019-01-27T07:31:35.676Z,8.6
2019-01-27T07:32:28.675Z,8.63
2019-01-27T07:33:21.745Z,8.52
2019-01-27T07:34:16.118Z,8.5
2019-01-27T07:35:11.719Z,8.5
2019-01-27T07:36:05.585Z,8.47
2019-01-27T07:37:00.440Z,8.46
2019-01-27T07:37:55.701Z,8.57
2019-01-27T07:38:50.686Z,8.55
2019-01-27T07:39:46.263Z,8.6
2019-01-27T07:40:40.855Z,8.63
2019-01-27T07:41:40.460Z,8.67
2019-01-27T07:42:34.739Z,8.68
2019-01-27T07:43:30.223Z,8.83
2019-01-27T07:44:27.331Z,8.75
2019-01-27T07:45:21.442Z,8.89
2019-01-27T07:46:22.962Z,8.97
2019-01-27T07:47:20.122Z,8.93
2019-01-27T07:48:28.919Z,8.98
2019-01-27T07:49:29.697Z,8.94
2019-01-27T07:50:24.269Z,9.04
2019-01-27T07:51:21.392Z,9.15
2019-01-27T07:52:14.709Z,9.1
2019-01-27T07:53:10.865Z,9.1
2019-01-27T07:54:03.194Z,9.08
2019-01-27T07:54:57.093Z,9.08
2019-01-27T07:55:50.152Z,9.15
2019-01-27T07:56:44.019Z,9.06
2019-01-27T07:57:37.057Z,9.23
2019-01-27T07:58:33.138Z,9.26
2019-01-27T07:59:26.494Z,9.3
2019-01-27T08:00:20.603Z,9.32
2019-01-27T08:01:13.235Z,9.35
2019-01-27T08:02:06.875Z,9.32
2019-01-27T08:03:00.728Z,9.35
2019-01-27T08:03:53.820Z,9.2
2019-01-27T08:04:48.070Z,9.32
2019-01-27T08:05:41.338Z,9.31
2019-01-27T08:06:34.696Z,9.3
2019-01-27T08:07:27.940Z,9.27
2019-01-27T08:08:20.891Z,9.3
2019-01-27T08:09:14.607Z,9.35
2019-01-27T08:10:07.516Z,9.35
2019-01-27T08:10:59.679Z,9.31
2019-01-27T08:11:52.602Z,9.34
2019-01-27T08:12:46.141Z,9.32
2019-01-27T08:13:39.035Z,9.31
2019-01-27T08:14:31.703Z,9.24
2019-01-27T08:15:26.051Z,9.27
2019-01-27T08:16:18.898Z,9.27
2019-01-27T08:17:12.486Z,9.38
2019-01-27T08:18:19.169Z,9.52
2019-01-27T08:19:11.900Z,9.59
2019-01-27T08:20:04.253Z,9.63
2019-01-27T08:20:57.443Z,9.74
2019-01-27T08:21:49.882Z,9.8
2019-01-27T08:22:42.926Z,9.98
2019-01-27T08:23:37.759Z,10.02
2019-01-27T08:24:31.784Z,10.07
2019-01-27T08:26:40.430Z,10.51
2019-01-27T08:27:34.874Z,10.66
2019-01-27T08:28:30.889Z,10.81
2019-01-27T08:30:41.136Z,10.98
2019-01-27T08:31:35.815Z,10.98
2019-01-27T08:32:29.328Z,11.08
2019-01-27T08:33:24.290Z,10.88
2019-01-27T08:34:17.227Z,10.86
2019-01-27T08:35:09.641Z,10.9
2019-01-27T08:36:05.580Z,10.91
2019-01-27T08:36:59.657Z,11.01
2019-01-27T08:37:55.632Z,10.88
2019-01-27T08:38:50.957Z,10.91
2019-01-27T08:39:45.449Z,10.86
2019-01-27T08:40:38.568Z,10.78
2019-01-27T08:41:32.178Z,10.54
2019-01-27T08:42:27.294Z,10.42
2019-01-27T08:45:29.886Z,10.18
2019-01-27T08:46:25.150Z,10.11
2019-01-27T08:47:19.213Z,10.04
2019-01-27T08:52:50.672Z,9.99
2019-01-27T08:53:30.875Z,10.02
2019-01-27T08:54:18.248Z,10.01
2019-01-27T08:55:01.337Z,10.02
2019-01-27T08:57:14.247Z,9.95
2019-01-27T08:58:07.634Z,9.93
2019-01-27T08:59:02.930Z,9.86
2019-01-27T08:59:55.427Z,9.95
2019-01-27T09:00:48.014Z,9.88
2019-01-27T09:01:42.057Z,9.88
2019-01-27T09:02:35.396Z,9.93
2019-01-27T09:03:29.351Z,9.98
2019-01-27T09:04:25.577Z,9.98
2019-01-27T09:10:50.495Z,10.06
2019-01-27T09:11:42.755Z,9.95
2019-01-27T09:12:35.579Z,9.92
2019-01-27T09:13:45.959Z,9.68
2019-01-27T09:14:38.879Z,9.6
2019-01-27T09:15:31.983Z,9.49
2019-01-27T09:16:27.464Z,9.4
2019-01-27T09:17:19.817Z,9.35
2019-01-27T09:18:12.619Z,9.38
2019-01-27T09:19:07.889Z,9.34
2019-01-27T09:20:00.327Z,9.41
2019-01-27T09:20:56.766Z,9.23
2019-01-27T09:21:50.770Z,9.32
2019-01-27T09:22:49.957Z,9.37
2019-01-27T09:23:41.839Z,9.31
2019-01-27T09:24:35.041Z,9.34
2019-01-27T09:25:27.150Z,9.32
2019-01-27T09:26:19.518Z,9.31
2019-01-27T09:27:14.947Z,9.32
2019-01-27T09:28:07.038Z,9.24
2019-01-27T09:29:04.834Z,9.34
2019-01-27T09:30:00.399Z,9.31
2019-01-27T09:30:52.752Z,9.31
2019-01-27T09:31:46.969Z,9.37
2019-01-27T09:32:39.928Z,9.32
2019-01-27T09:33:33.312Z,9.34
2019-01-27T09:34:26.304Z,9.34
2019-01-27T09:35:19.186Z,9.35
2019-01-27T09:36:12.380Z,9.31
2019-01-27T09:37:06.742Z,9.35
2019-01-27T09:38:04.056Z,9.2
2019-01-27T09:38:57.873Z,9.17
2019-01-27T09:39:51.880Z,9.13
2019-01-27T09:40:48.089Z,9.1
2019-01-27T09:41:41.366Z,8.89
2019-01-27T09:44:31.253Z,8.86
2019-01-27T09:45:24.610Z,8.86
2019-01-27T09:46:20.021Z,8.78
2019-01-27T09:47:13.829Z,8.79
2019-01-27T09:48:06.863Z,8.8
2019-01-27T09:49:02.091Z,8.78
2019-01-27T09:49:54.541Z,8.76
2019-01-27T09:50:49.339Z,8.75
2019-01-27T09:51:43.107Z,8.89
2019-01-27T09:52:35.557Z,8.93
2019-01-27T09:53:27.948Z,8.96
2019-01-27T09:54:22.052Z,8.96
2019-01-27T09:55:14.261Z,8.89
2019-01-27T09:56:08.261Z,8.89
2019-01-27T09:57:00.161Z,8.88
2019-01-27T09:57:56.074Z,8.97
2019-01-27T09:59:25.234Z,9.03
2019-01-27T10:00:21.855Z,9.13
2019-01-27T10:01:20.270Z,9.12
2019-01-27T10:02:34.553Z,9.3
2019-01-27T10:03:33.252Z,9.38
2019-01-27T10:06:02.703Z,9.85
2019-01-27T10:07:06.910Z,9.74
2019-01-27T10:08:11.583Z,9.75
2019-01-27T10:09:08.554Z,9.63
2019-01-27T10:10:05.019Z,9.59
2019-01-27T10:11:00.340Z,9.68
2019-01-27T10:11:58.749Z,9.67
2019-01-27T10:18:25.013Z,10.06
2019-01-27T10:19:27.672Z,10.18
2019-01-27T10:20:27.551Z,10.24
2019-01-27T10:21:23.717Z,10.2
2019-01-27T10:22:37.858Z,10.2
2019-01-27T10:23:32.082Z,10.17
2019-01-27T10:24:38.930Z,10.24
2019-01-27T10:25:38.022Z,10.07
2019-01-27T10:26:38.634Z,10.02
2019-01-27T10:27:34.340Z,9.96
2019-01-27T11:07:10.950Z,9.85
2019-01-27T11:08:05.361Z,9.86
2019-01-27T11:09:00.935Z,9.91
2019-01-27T11:11:15.519Z,9.86
2019-01-27T11:11:55.984Z,9.85
2019-01-27T11:12:37.295Z,9.83
2019-01-27T11:13:21.822Z,9.92
2019-01-27T11:14:02.319Z,9.77
2019-01-27T11:14:47.582Z,9.91
2019-01-27T11:15:33.278Z,9.83
2019-01-27T11:16:12.221Z,9.86
2019-01-27T11:16:59.208Z,9.99
2019-01-27T11:17:39.921Z,10.02
2019-01-27T11:18:23.976Z,10.14
2019-01-27T11:21:31.840Z,10.42
2019-01-27T11:22:29.427Z,10.49
2019-01-27T11:23:26.515Z,10.52
2019-01-27T11:25:24.822Z,10.58
2019-01-27T11:26:21.998Z,10.6
2019-01-27T11:27:19.160Z,10.69
2019-01-27T11:36:34.036Z,11.21
2019-01-27T11:38:35.601Z,11.19
2019-01-27T11:39:19.255Z,11.13
2019-01-27T11:40:01.409Z,11.19
2019-01-27T11:40:43.421Z,11.09
2019-01-27T11:41:25.014Z,11.11
2019-01-27T11:42:06.249Z,11.12
2019-01-27T11:42:51.330Z,11.16
2019-01-27T11:43:31.955Z,11.19
2019-01-27T11:44:12.374Z,11.23
2019-01-27T11:44:56.503Z,11.21
2019-01-27T11:45:36.833Z,11.17
2019-01-27T11:46:17.271Z,11.21
2019-01-27T11:46:57.780Z,11.13
2019-01-27T11:47:40.215Z,11.17
2019-01-27T11:48:20.721Z,11.21
2019-01-27T11:49:00.997Z,11.11
2019-01-27T11:49:42.583Z,11.16
2019-01-27T11:50:28.583Z,11.17
2019-01-27T11:51:08.799Z,10.94
2019-01-27T11:53:14.642Z,11.13
2019-01-27T11:55:12.724Z,11.08
2019-01-27T11:55:54.959Z,11.12
2019-01-27T11:56:35.341Z,11.16
2019-01-27T11:57:15.790Z,11.12
2019-01-27T11:57:57.249Z,11.19
2019-01-27T11:58:37.678Z,11.21
2019-01-27T11:59:18.156Z,11.16
2019-01-27T11:59:59.551Z,11.23
2019-01-27T12:00:39.925Z,11.3
2019-01-27T12:01:20.621Z,11.28
2019-01-27T12:02:01.154Z,11.33
2019-01-27T12:02:46.496Z,11.28
2019-01-27T12:03:22.064Z,11.38
2019-01-27T12:04:02.765Z,11.48
2019-01-27T12:04:43.349Z,11.48
2019-01-27T12:05:24.618Z,11.45
2019-01-27T12:06:04.996Z,11.49
2019-01-27T12:06:45.404Z,11.36
2019-01-27T12:07:33.919Z,11.42
2019-01-27T12:08:14.262Z,11.42
2019-01-27T12:08:54.803Z,11.49
2019-01-27T12:09:35.374Z,11.48
2019-01-27T12:10:15.615Z,11.6
2019-01-27T12:10:56.058Z,11.62
2019-01-27T12:11:37.371Z,11.67
2019-01-27T12:12:18.881Z,11.64
2019-01-27T12:12:59.496Z,11.67
2019-01-27T12:13:40.006Z,11.64
2019-01-27T12:14:20.301Z,11.66
2019-01-27T12:15:01.747Z,11.6
2019-01-27T12:15:42.132Z,11.63
2019-01-27T12:16:22.651Z,11.64
2019-01-27T12:17:03.739Z,11.69
2019-01-27T12:17:43.577Z,11.87
2019-01-27T12:18:23.925Z,11.84
2019-01-27T12:19:04.407Z,11.97
2019-01-27T12:19:44.875Z,12.11
2019-01-27T12:20:26.233Z,12.12
2019-01-27T12:21:06.560Z,12.19
2019-01-27T12:21:46.976Z,12.3
2019-01-27T12:22:27.342Z,12.37
2019-01-27T12:23:07.732Z,12.37
2019-01-27T12:23:50.059Z,12.43
2019-01-27T12:24:30.426Z,12.43
2019-01-27T12:25:11.118Z,12.49
2019-01-27T12:25:51.409Z,12.49
2019-01-27T12:26:31.800Z,12.37
2019-01-27T12:27:12.191Z,12.49
2019-01-27T12:27:53.466Z,12.46
2019-01-27T12:28:35.572Z,12.48
2019-01-27T12:29:16.966Z,12.49
2019-01-27T12:29:57.625Z,12.4
2019-01-27T12:30:38.069Z,12.3
2019-01-27T12:31:18.526Z,12.3
2019-01-27T12:31:59.837Z,12.34
2019-01-27T12:32:40.194Z,12.34
2019-01-27T12:33:20.611Z,12.33
2019-01-27T12:34:01.240Z,12.34
2019-01-27T12:34:41.685Z,12.33
2019-01-27T12:35:22.010Z,12.34
2019-01-27T12:36:02.447Z,12.37
2019-01-27T12:36:42.851Z,12.34
2019-01-27T12:37:23.246Z,12.3
2019-01-27T12:38:03.734Z,12.4
2019-01-27T12:38:44.871Z,12.4
2019-01-27T12:39:26.289Z,12.41
2019-01-27T12:40:06.830Z,12.34
2019-01-27T12:40:47.249Z,12.25
2019-01-27T12:41:27.664Z,12.19
2019-01-27T12:42:08.086Z,12.19
2019-01-27T12:42:48.509Z,12
2019-01-27T12:43:29.031Z,12.12
2019-01-27T12:44:09.438Z,12
2019-01-27T12:44:49.943Z,11.94
2019-01-27T12:45:30.432Z,11.84
2019-01-27T12:46:10.795Z,11.98
2019-01-27T12:46:51.904Z,11.84
2019-01-27T12:47:32.606Z,11.93
2019-01-27T12:48:13.684Z,11.97
2019-01-27T12:48:54.201Z,12.01
2019-01-27T12:49:35.821Z,11.96
2019-01-27T12:50:16.013Z,11.93
2019-01-27T12:50:56.356Z,11.93
2019-01-27T12:56:27.910Z,11.74
2019-01-27T12:57:22.220Z,11.78
2019-01-27T12:59:17.222Z,12.04
2019-01-27T13:00:03.367Z,11.97
2019-01-27T13:00:46.500Z,12.07
2019-01-27T13:01:26.942Z,12.13
2019-01-27T13:02:07.300Z,12.33
2019-01-27T13:02:49.117Z,12.36
2019-01-27T13:03:30.833Z,12.31
2019-01-27T13:04:13.490Z,12.3
2019-01-27T13:04:55.007Z,12.25
2019-01-27T13:05:37.035Z,12.13
2019-01-27T13:07:30.521Z,12.36
2019-01-27T13:12:35.524Z,12.54
2019-01-27T13:13:16.074Z,12.48
2019-01-27T13:13:57.958Z,12.49
2019-01-27T13:14:40.125Z,12.43
2019-01-27T13:15:20.613Z,12.33
2019-01-27T13:16:01.996Z,12.34
2019-01-27T13:16:44.284Z,12.41
2019-01-27T13:17:26.293Z,12.48
2019-01-27T13:18:08.901Z,12.38